9D7

Cando Municipal Airport

Cando, North Dakota, USA
METAR K9D7 181315Z AUTO 02006KT 10SM CLR 17/14 A3018 RMK AO2
Observed Flight Rules
Jun-18 @ 13:15 UTC (8 minutes ago) Visual Flight Rules
Wind Visibility Clouds
20° at 6 knots 10 miles
  • Clear skies
Temperatures Readings
Current 17°C / 63°F
Dewpoint 14°C / 57°F
Humidity 83%
Altimeter 30.18" Hg
Pressure 1022 hPa
Elevation 452
METAR K9D7 181315Z AUTO 02006KT 10SM CLR 17/14 A3018 RMK AO2
Observed Flight Rules
Jun-18 @ 13:15 UTC
(8 minutes ago)
VFR
Wind Visibility
20° at 6 knots 10 miles
Clouds
  • Clear skies
Temperature Dewpoint
17°C / 63°F 14°C / 57°F
Humidity Altimeter Pressure
83% 30.18" Hg 1022 hPa